createdAt,value
2019-04-29T00:01:56.652Z,7.42
2019-04-29T00:04:06.080Z,7.97
2019-04-29T00:06:14.317Z,7.35
2019-04-29T00:08:22.182Z,6.03
2019-04-29T00:10:30.298Z,6.78
2019-04-29T00:12:38.304Z,5.65
2019-04-29T00:14:47.713Z,3.50
2019-04-29T00:16:57.217Z,4.10
2019-04-29T00:19:23.377Z,4.30
2019-04-29T00:21:32.345Z,4.53
2019-04-29T00:23:41.122Z,4.22
2019-04-29T00:25:48.882Z,5.62
2019-04-29T00:27:56.742Z,3.75
2019-04-29T00:30:09.876Z,5.10
2019-04-29T00:32:17.740Z,5.58
2019-04-29T00:34:25.666Z,5.78
2019-04-29T00:36:35.304Z,2.50
2019-04-29T00:39:02.731Z,5.70
2019-04-29T00:41:13.908Z,4.28
2019-04-29T00:43:23.422Z,3.05
2019-04-29T00:45:31.464Z,2.77
2019-04-29T00:47:39.298Z,2.77
2019-04-29T00:49:47.189Z,3.60
2019-04-29T00:51:55.127Z,3.08
2019-04-29T00:54:06.279Z,3.15
2019-04-29T00:56:14.375Z,2.77
2019-04-29T00:58:22.286Z,2.10
2019-04-29T01:00:40.909Z,2.75
2019-04-29T01:02:48.827Z,2.55
2019-04-29T01:04:56.833Z,1.77
2019-04-29T01:07:05.367Z,2.47
2019-04-29T01:09:14.933Z,1.25
2019-04-29T01:11:25.186Z,2.20
2019-04-29T01:13:34.341Z,2.08
2019-04-29T01:15:42.333Z,2.30
2019-04-29T01:17:50.270Z,3.05
2019-04-29T01:19:58.134Z,2.67
2019-04-29T01:22:06.281Z,2.85
2019-04-29T01:24:14.451Z,2.37
2019-04-29T01:26:23.913Z,2.77
2019-04-29T01:28:37.895Z,4.87
2019-04-29T01:31:00.008Z,4.12
2019-04-29T01:33:07.944Z,4.05
2019-04-29T01:35:15.806Z,4.15
2019-04-29T01:37:40.527Z,2.67
2019-04-29T01:40:06.193Z,2.87
2019-04-29T01:42:22.059Z,3.77
2019-04-29T01:44:31.454Z,3.20
2019-04-29T01:46:39.221Z,4.22
2019-04-29T01:48:47.027Z,3.72
2019-04-29T01:50:54.980Z,3.90
2019-04-29T01:53:02.846Z,3.47
2019-04-29T01:55:10.882Z,3.22
2019-04-29T01:57:18.751Z,5.25
2019-04-29T01:59:26.725Z,5.33
2019-04-29T02:01:34.599Z,2.90
2019-04-29T02:03:42.461Z,2.80
2019-04-29T02:05:50.403Z,5.10
2019-04-29T02:07:58.299Z,6.05
2019-04-29T02:10:08.442Z,5.90
2019-04-29T02:12:16.115Z,4.53
2019-04-29T02:14:24.013Z,5.12
2019-04-29T02:16:31.954Z,5.03
2019-04-29T02:18:39.818Z,5.40
2019-04-29T02:20:47.605Z,5.45
2019-04-29T02:23:01.029Z,5.65
2019-04-29T02:25:10.941Z,7.05
2019-04-29T02:27:19.807Z,7.05
2019-04-29T02:29:27.819Z,9.75
2019-04-29T02:31:38.463Z,11.12
2019-04-29T02:33:46.350Z,9.00
2019-04-29T02:35:54.223Z,9.18
2019-04-29T02:38:02.875Z,8.38
2019-04-29T02:40:12.375Z,9.40
2019-04-29T02:42:38.046Z,9.50
2019-04-29T02:44:46.129Z,7.15
2019-04-29T02:46:54.118Z,8.38
2019-04-29T02:49:01.931Z,8.68
2019-04-29T02:51:09.778Z,9.85
2019-04-29T02:53:18.150Z,10.53
2019-04-29T02:55:30.631Z,9.45
2019-04-29T02:57:42.941Z,11.70
2019-04-29T02:59:52.735Z,11.95
2019-04-29T03:02:06.509Z,9.23
2019-04-29T03:04:22.113Z,8.43
2019-04-29T03:06:31.149Z,8.38
2019-04-29T03:08:39.425Z,7.53
2019-04-29T03:10:47.412Z,10.08
2019-04-29T03:12:55.217Z,11.00
2019-04-29T03:15:03.238Z,13.10
2019-04-29T03:17:11.481Z,13.60
2019-04-29T03:19:21.158Z,14.87
2019-04-29T03:21:34.063Z,16.97
2019-04-29T03:23:42.109Z,13.18
2019-04-29T03:25:50.249Z,11.60
2019-04-29T03:27:58.109Z,9.50
2019-04-29T03:30:07.448Z,11.35
2019-04-29T03:32:15.358Z,10.75
2019-04-29T03:34:23.262Z,8.70
2019-04-29T03:36:31.026Z,9.55
2019-04-29T03:38:38.933Z,11.08
2019-04-29T03:40:46.721Z,14.43
2019-04-29T03:42:54.508Z,27.45
2019-04-29T03:45:02.407Z,30.45
2019-04-29T03:47:10.191Z,22.22
2019-04-29T03:49:17.966Z,20.43
2019-04-29T03:51:25.888Z,16.60
2019-04-29T03:53:33.919Z,20.50
2019-04-29T03:55:41.708Z,21.90
2019-04-29T03:57:49.690Z,22.48
2019-04-29T03:59:57.469Z,28.12
2019-04-29T04:02:17.192Z,24.67
2019-04-29T04:04:43.100Z,10.70
2019-04-29T04:06:55.473Z,11.28
2019-04-29T04:09:10.840Z,9.23
2019-04-29T04:11:18.826Z,10.95
2019-04-29T04:13:26.598Z,9.13
2019-04-29T04:15:34.684Z,9.50
2019-04-29T04:17:47.944Z,9.95
2019-04-29T04:19:55.992Z,9.48
2019-04-29T04:22:04.034Z,10.20
2019-04-29T04:24:11.847Z,9.95
2019-04-29T04:26:20.277Z,8.60
2019-04-29T04:28:29.369Z,8.08
2019-04-29T04:30:37.252Z,7.50
2019-04-29T04:32:45.355Z,7.35
2019-04-29T04:34:53.304Z,8.05
2019-04-29T04:37:01.213Z,28.17
2019-04-29T04:39:09.843Z,48.25
2019-04-29T04:41:17.922Z,28.70
2019-04-29T04:43:25.860Z,11.12
2019-04-29T04:45:33.748Z,8.80
2019-04-29T04:47:41.583Z,8.08
2019-04-29T04:49:49.644Z,8.75
2019-04-29T04:51:57.596Z,8.20
2019-04-29T04:54:05.547Z,8.38
2019-04-29T04:56:13.860Z,9.08
2019-04-29T04:58:22.096Z,9.80
2019-04-29T05:00:31.753Z,9.93
2019-04-29T05:02:39.569Z,10.28
2019-04-29T05:04:48.388Z,9.95
2019-04-29T05:06:56.305Z,12.80
2019-04-29T05:09:07.468Z,11.33
2019-04-29T05:11:16.693Z,10.30
2019-04-29T05:13:28.384Z,11.83
2019-04-29T05:15:34.263Z,11.73
2019-04-29T05:17:42.235Z,11.68
2019-04-29T05:19:50.078Z,10.90
2019-04-29T05:21:57.909Z,12.80
2019-04-29T05:24:06.858Z,13.78
2019-04-29T05:26:15.136Z,14.15
2019-04-29T05:28:25.031Z,21.85
2019-04-29T05:30:32.996Z,12.82
2019-04-29T05:32:40.986Z,13.78
2019-04-29T05:34:50.550Z,15.53
2019-04-29T05:37:16.301Z,17.42
2019-04-29T05:39:37.859Z,17.55
2019-04-29T05:41:45.707Z,16.62
2019-04-29T05:44:11.594Z,17.67
2019-04-29T05:46:21.738Z,16.95
2019-04-29T05:48:32.094Z,17.73
2019-04-29T05:50:42.997Z,21.90
2019-04-29T05:52:59.713Z,16.37
2019-04-29T05:55:09.598Z,16.57
2019-04-29T05:57:20.345Z,17.00
2019-04-29T05:59:27.155Z,17.50
2019-04-29T06:01:34.973Z,16.93
2019-04-29T06:03:44.507Z,17.77
2019-04-29T06:05:52.437Z,18.25
2019-04-29T06:08:02.822Z,19.75
2019-04-29T06:10:11.666Z,19.52
2019-04-29T06:12:19.559Z,21.75
2019-04-29T06:14:27.381Z,22.07
2019-04-29T06:16:35.412Z,22.48
2019-04-29T06:18:43.269Z,22.50
2019-04-29T06:20:51.184Z,25.10
2019-04-29T06:23:00.065Z,28.62
2019-04-29T06:25:08.062Z,29.92
2019-04-29T06:27:16.462Z,26.07
2019-04-29T06:29:26.102Z,27.50
2019-04-29T06:31:34.192Z,24.40
2019-04-29T06:33:42.219Z,29.12
2019-04-29T06:35:50.441Z,37.58
2019-04-29T06:37:58.368Z,31.57
2019-04-29T06:40:07.825Z,27.73
2019-04-29T06:42:19.560Z,39.78
2019-04-29T06:44:26.027Z,40.30
2019-04-29T06:46:34.121Z,28.62
2019-04-29T06:48:42.205Z,25.40
2019-04-29T06:50:50.198Z,33.75
2019-04-29T06:52:58.119Z,37.70
2019-04-29T06:55:06.879Z,28.07
2019-04-29T06:57:14.737Z,28.07
2019-04-29T06:59:22.853Z,34.50
2019-04-29T07:01:33.030Z,72.82
2019-04-29T07:03:40.608Z,44.98
2019-04-29T07:05:51.388Z,40.20
2019-04-29T07:07:58.131Z,35.80
2019-04-29T07:10:07.135Z,29.45
2019-04-29T07:12:15.579Z,27.42
2019-04-29T07:14:23.454Z,32.42
2019-04-29T07:16:32.027Z,29.92
2019-04-29T07:18:48.317Z,27.50
2019-04-29T07:20:50.796Z,30.70
2019-04-29T07:23:00.654Z,29.20
2019-04-29T07:25:09.074Z,30.35
2019-04-29T07:27:16.866Z,35.80
2019-04-29T07:29:29.809Z,35.35
2019-04-29T07:31:35.202Z,36.42
2019-04-29T07:33:43.463Z,30.90
2019-04-29T07:35:51.358Z,29.48
2019-04-29T07:37:59.299Z,27.70
2019-04-29T07:40:09.378Z,29.32
2019-04-29T07:42:17.635Z,30.00
2019-04-29T07:44:32.868Z,31.95
2019-04-29T07:47:00.262Z,26.75
2019-04-29T07:49:05.649Z,32.42
2019-04-29T07:51:12.797Z,30.37
2019-04-29T07:53:29.977Z,34.33
2019-04-29T07:55:31.187Z,27.82
2019-04-29T07:57:41.094Z,29.65
2019-04-29T07:59:48.893Z,32.75
2019-04-29T08:01:59.822Z,28.60
2019-04-29T08:04:07.203Z,32.03
2019-04-29T08:06:16.612Z,35.03
2019-04-29T08:08:25.546Z,38.75
2019-04-29T08:10:34.229Z,32.17
2019-04-29T08:12:43.057Z,29.10
2019-04-29T08:14:53.409Z,36.83
2019-04-29T08:17:01.746Z,47.95
2019-04-29T08:19:09.713Z,42.05
2019-04-29T08:21:17.871Z,38.45
2019-04-29T08:23:26.200Z,26.52
2019-04-29T08:25:34.904Z,24.72
2019-04-29T08:27:43.819Z,25.25
2019-04-29T08:29:52.229Z,26.50
2019-04-29T08:32:02.479Z,18.95
2019-04-29T08:34:09.711Z,23.80
2019-04-29T08:36:17.557Z,21.10
2019-04-29T08:38:25.488Z,23.47
2019-04-29T08:40:34.353Z,21.93
2019-04-29T08:42:53.013Z,21.97
2019-04-29T08:45:05.309Z,21.65
2019-04-29T08:47:23.047Z,22.05
2019-04-29T08:49:31.080Z,23.92
2019-04-29T08:51:39.449Z,24.25
2019-04-29T08:53:47.408Z,23.55
2019-04-29T08:55:55.363Z,23.77
2019-04-29T08:58:07.006Z,28.92
2019-04-29T09:00:15.451Z,40.35
2019-04-29T09:02:34.531Z,32.38
2019-04-29T09:04:33.720Z,28.42
2019-04-29T09:06:42.729Z,25.43
2019-04-29T09:08:55.262Z,25.70
2019-04-29T09:11:00.345Z,39.67
2019-04-29T09:13:08.238Z,26.02
2019-04-29T09:15:17.047Z,29.05
2019-04-29T09:17:24.829Z,45.98
2019-04-29T09:19:33.841Z,41.60
2019-04-29T09:21:43.706Z,26.82
2019-04-29T09:23:51.671Z,26.68
2019-04-29T09:26:13.588Z,36.08
2019-04-29T09:28:28.127Z,28.83
2019-04-29T09:30:32.463Z,32.85
2019-04-29T09:32:40.363Z,29.82
2019-04-29T09:34:48.282Z,26.45
2019-04-29T09:36:56.444Z,21.30
2019-04-29T09:39:05.878Z,22.22
2019-04-29T09:41:25.817Z,21.93
2019-04-29T09:43:33.551Z,23.15
2019-04-29T09:45:43.245Z,23.32
2019-04-29T09:47:51.641Z,23.22
2019-04-29T09:50:00.591Z,23.60
2019-04-29T09:52:09.821Z,26.12
2019-04-29T09:54:17.636Z,27.22
2019-04-29T09:56:25.895Z,36.58
2019-04-29T09:58:33.826Z,34.63
2019-04-29T10:00:46.515Z,35.28
2019-04-29T10:02:57.108Z,34.80
2019-04-29T10:05:09.745Z,28.40
2019-04-29T10:07:17.665Z,25.68
2019-04-29T10:09:25.905Z,22.20
2019-04-29T10:11:33.951Z,24.02
2019-04-29T10:13:42.101Z,33.38
2019-04-29T10:16:07.961Z,34.92
2019-04-29T10:18:18.701Z,19.65
2019-04-29T10:20:48.036Z,16.93
2019-04-29T10:22:55.832Z,19.95
2019-04-29T10:25:05.671Z,29.72
2019-04-29T10:27:14.704Z,26.05
2019-04-29T10:29:25.839Z,23.32
2019-04-29T10:31:34.044Z,26.82
2019-04-29T10:33:42.340Z,21.27
2019-04-29T10:35:50.633Z,19.73
2019-04-29T10:38:02.941Z,19.20
2019-04-29T10:40:16.047Z,17.30
2019-04-29T10:42:31.886Z,16.70
2019-04-29T10:44:56.778Z,18.30
2019-04-29T10:47:13.962Z,22.65
2019-04-29T10:49:23.732Z,22.15
2019-04-29T10:51:32.256Z,28.77
2019-04-29T10:53:40.361Z,35.05
2019-04-29T10:55:48.421Z,33.28
2019-04-29T10:57:56.296Z,29.72
2019-04-29T11:00:10.368Z,22.60
2019-04-29T11:02:18.977Z,19.82
2019-04-29T11:04:26.912Z,21.50
2019-04-29T11:06:35.844Z,24.15
2019-04-29T11:08:47.516Z,25.82
2019-04-29T11:11:02.386Z,27.58
2019-04-29T11:13:06.894Z,27.30
2019-04-29T11:15:16.573Z,30.85
2019-04-29T11:17:26.481Z,31.80
2019-04-29T11:19:35.049Z,31.70
2019-04-29T11:21:44.633Z,33.78
2019-04-29T11:23:57.194Z,34.58
2019-04-29T11:26:23.702Z,34.65
2019-04-29T11:28:34.135Z,33.67
2019-04-29T11:30:42.217Z,35.03
2019-04-29T11:32:51.847Z,34.43
2019-04-29T11:35:10.138Z,34.58
2019-04-29T11:37:19.606Z,33.20
2019-04-29T11:39:27.569Z,33.50
2019-04-29T11:41:35.423Z,34.23
2019-04-29T11:43:46.658Z,31.57
2019-04-29T11:45:53.513Z,31.50
2019-04-29T11:48:01.473Z,27.05
2019-04-29T11:50:14.930Z,20.30
2019-04-29T11:52:23.555Z,20.68
2019-04-29T11:54:32.744Z,24.77
2019-04-29T11:56:40.814Z,26.82
2019-04-29T11:59:09.631Z,20.23
2019-04-29T12:01:39.193Z,21.60
2019-04-29T12:03:46.500Z,19.50
2019-04-29T12:05:56.325Z,16.93
2019-04-29T12:08:11.432Z,20.92
2019-04-29T12:10:14.223Z,21.50
2019-04-29T12:12:23.992Z,16.10
2019-04-29T12:14:37.970Z,16.45
2019-04-29T12:16:50.114Z,15.08
2019-04-29T12:19:08.805Z,13.88
2019-04-29T12:21:27.502Z,14.45
2019-04-29T12:23:35.567Z,20.10
2019-04-29T12:25:43.880Z,24.00
2019-04-29T12:28:01.175Z,22.20
2019-04-29T12:30:01.860Z,22.02
2019-04-29T12:32:16.368Z,24.80
2019-04-29T12:34:44.618Z,25.15
2019-04-29T12:36:56.873Z,24.90
2019-04-29T12:39:12.362Z,24.60
2019-04-29T12:41:29.912Z,25.92
2019-04-29T12:43:39.518Z,22.27
2019-04-29T12:45:49.733Z,24.82
2019-04-29T12:47:57.800Z,22.45
2019-04-29T12:50:08.124Z,15.13
2019-04-29T12:52:16.036Z,16.07
2019-04-29T12:54:23.826Z,15.38
2019-04-29T12:56:37.573Z,15.98
2019-04-29T12:58:50.386Z,16.52
2019-04-29T13:01:01.239Z,16.10
2019-04-29T13:03:09.111Z,15.00
2019-04-29T13:05:25.668Z,14.75
2019-04-29T13:07:44.170Z,14.28
2019-04-29T13:09:54.105Z,15.03
2019-04-29T13:12:18.010Z,14.68
2019-04-29T13:14:11.765Z,15.72
2019-04-29T13:16:33.969Z,19.55
2019-04-29T13:18:43.528Z,21.33
2019-04-29T13:20:53.725Z,40.05
2019-04-29T13:23:16.950Z,35.48
2019-04-29T13:25:15.550Z,30.12
2019-04-29T13:27:25.650Z,31.02
2019-04-29T13:29:36.100Z,33.40
2019-04-29T13:31:42.081Z,27.00
2019-04-29T13:33:52.895Z,25.48
2019-04-29T13:36:00.898Z,29.00
2019-04-29T13:38:08.883Z,32.73
2019-04-29T13:40:17.857Z,30.72
2019-04-29T13:42:26.032Z,37.23
2019-04-29T13:44:41.787Z,24.60
2019-04-29T13:46:57.756Z,31.27
2019-04-29T13:49:13.763Z,34.95
2019-04-29T13:51:35.188Z,27.70
2019-04-29T13:53:33.968Z,24.92
2019-04-29T13:55:49.983Z,26.77
2019-04-29T13:57:54.768Z,29.45
2019-04-29T14:00:10.574Z,17.65
2019-04-29T14:02:22.084Z,20.40
2019-04-29T14:04:32.066Z,35.73
2019-04-29T14:06:41.595Z,29.82
2019-04-29T14:08:49.557Z,29.00
2019-04-29T14:10:57.477Z,33.25
2019-04-29T14:13:13.293Z,41.70
2019-04-29T14:15:16.245Z,34.20
2019-04-29T14:17:26.928Z,24.35
2019-04-29T14:19:41.109Z,29.82
2019-04-29T14:21:44.213Z,21.52
2019-04-29T14:23:53.509Z,18.87
2019-04-29T14:26:01.815Z,17.42
2019-04-29T14:28:12.903Z,16.52
2019-04-29T14:30:21.692Z,16.35
2019-04-29T14:32:35.827Z,18.75
2019-04-29T14:34:49.266Z,19.73
2019-04-29T14:37:18.052Z,21.42
2019-04-29T14:39:13.107Z,22.32
2019-04-29T14:41:20.856Z,25.35
2019-04-29T14:43:41.130Z,22.70
2019-04-29T14:45:54.128Z,24.63
2019-04-29T14:48:19.443Z,23.75
2019-04-29T14:50:27.674Z,22.10
2019-04-29T14:52:35.961Z,25.75
2019-04-29T14:54:44.156Z,25.85
2019-04-29T14:56:52.280Z,24.70
2019-04-29T14:59:07.189Z,30.17
2019-04-29T15:01:12.239Z,25.00
2019-04-29T15:03:25.590Z,22.80
2019-04-29T15:05:33.892Z,26.87
2019-04-29T15:07:41.884Z,25.55
2019-04-29T15:09:57.394Z,23.62
2019-04-29T15:12:09.783Z,29.30
2019-04-29T15:14:35.451Z,27.45
2019-04-29T15:16:49.057Z,33.33
2019-04-29T15:19:03.308Z,30.27
2019-04-29T15:21:14.008Z,32.83
2019-04-29T15:23:28.856Z,35.08
2019-04-29T15:25:31.824Z,35.83
2019-04-29T15:27:40.089Z,39.00
2019-04-29T15:29:48.646Z,41.13
2019-04-29T15:31:56.931Z,43.78
2019-04-29T15:34:09.022Z,45.73
2019-04-29T15:36:14.613Z,43.30
2019-04-29T15:38:22.522Z,42.88
2019-04-29T15:40:30.410Z,33.63
2019-04-29T15:42:42.767Z,44.65
2019-04-29T15:44:51.625Z,37.67
2019-04-29T15:46:58.346Z,37.53
2019-04-29T15:49:06.726Z,24.50
2019-04-29T15:51:14.988Z,31.87
2019-04-29T15:53:22.969Z,37.93
2019-04-29T15:55:30.878Z,42.38
2019-04-29T15:57:38.878Z,38.70
2019-04-29T15:59:49.178Z,32.33
2019-04-29T16:01:59.214Z,29.45
2019-04-29T16:04:12.928Z,32.30
2019-04-29T16:06:21.783Z,30.45
2019-04-29T16:08:29.734Z,31.73
2019-04-29T16:10:57.855Z,26.85
2019-04-29T16:13:06.961Z,25.40
2019-04-29T16:15:15.491Z,28.50
2019-04-29T16:17:23.396Z,27.32
2019-04-29T16:19:32.120Z,25.05
2019-04-29T16:21:41.798Z,27.85
2019-04-29T16:23:49.865Z,29.75
2019-04-29T16:25:58.908Z,28.30
2019-04-29T16:28:06.788Z,27.85
2019-04-29T16:30:19.013Z,31.55
2019-04-29T16:32:32.028Z,32.33
2019-04-29T16:34:44.666Z,37.65
2019-04-29T16:36:52.434Z,37.67
2019-04-29T16:39:00.337Z,35.73
2019-04-29T16:41:19.459Z,29.82
2019-04-29T16:43:29.269Z,28.75
2019-04-29T16:45:55.433Z,27.10
2019-04-29T16:48:03.581Z,26.02
2019-04-29T16:50:11.644Z,30.08
2019-04-29T16:52:19.703Z,32.08
2019-04-29T16:54:28.637Z,31.77
2019-04-29T16:56:36.943Z,33.95
2019-04-29T16:58:44.861Z,32.78
2019-04-29T17:00:54.847Z,35.65
2019-04-29T17:03:02.430Z,37.78
2019-04-29T17:05:10.497Z,39.13
2019-04-29T17:07:18.572Z,39.38
2019-04-29T17:09:33.682Z,39.15
2019-04-29T17:11:44.624Z,37.95
2019-04-29T17:13:54.787Z,40.48
2019-04-29T17:16:04.302Z,41.65
2019-04-29T17:18:12.309Z,39.30
2019-04-29T17:20:21.796Z,40.45
2019-04-29T17:22:29.650Z,41.10
2019-04-29T17:24:37.547Z,41.25
2019-04-29T17:26:50.490Z,40.40
2019-04-29T17:29:11.560Z,41.15
2019-04-29T17:31:13.429Z,42.83
2019-04-29T17:33:48.836Z,43.50
2019-04-29T17:35:50.972Z,51.75
2019-04-29T17:37:59.047Z,63.92
2019-04-29T17:40:09.154Z,48.70
2019-04-29T17:42:17.420Z,40.40
2019-04-29T17:44:37.363Z,38.10
2019-04-29T17:46:54.575Z,40.15
2019-04-29T17:49:16.383Z,43.50
2019-04-29T17:51:24.808Z,44.15
2019-04-29T17:53:35.469Z,45.35
2019-04-29T17:55:45.327Z,45.70
2019-04-29T17:57:58.173Z,44.67
2019-04-29T18:00:26.890Z,47.67
2019-04-29T18:02:52.517Z,46.48
2019-04-29T18:05:17.037Z,49.03
2019-04-29T18:07:40.460Z,47.45
2019-04-29T18:09:48.484Z,48.23
2019-04-29T18:11:57.911Z,52.23
2019-04-29T18:14:08.706Z,51.42
2019-04-29T18:16:25.695Z,40.48
2019-04-29T18:18:46.476Z,40.00
2019-04-29T18:20:50.438Z,41.92
2019-04-29T18:23:15.820Z,42.65
2019-04-29T18:25:31.040Z,50.30
2019-04-29T18:27:39.285Z,60.03
2019-04-29T18:29:47.092Z,60.90
2019-04-29T18:31:55.628Z,58.63
2019-04-29T18:34:05.486Z,56.65
2019-04-29T18:36:21.972Z,56.48
2019-04-29T18:38:26.235Z,54.93
2019-04-29T18:40:41.415Z,58.20
2019-04-29T18:42:46.895Z,50.28
2019-04-29T18:45:00.210Z,48.90
2019-04-29T18:47:05.509Z,51.15
2019-04-29T18:49:13.423Z,57.10
2019-04-29T18:51:27.402Z,52.95
2019-04-29T18:53:31.171Z,51.63
2019-04-29T18:55:39.272Z,48.55
2019-04-29T18:57:47.283Z,45.70
2019-04-29T18:59:55.446Z,39.88
2019-04-29T19:02:07.827Z,39.83
2019-04-29T19:04:19.245Z,45.70
2019-04-29T19:06:27.792Z,46.70
2019-04-29T19:08:36.152Z,45.78
2019-04-29T19:10:45.987Z,45.73
2019-04-29T19:13:00.135Z,47.62
2019-04-29T19:15:10.021Z,47.45
2019-04-29T19:17:16.158Z,48.60
2019-04-29T19:19:25.305Z,44.13
2019-04-29T19:21:33.294Z,46.60
2019-04-29T19:23:41.199Z,44.15
2019-04-29T19:25:50.197Z,46.08
2019-04-29T19:27:58.376Z,47.85
2019-04-29T19:30:09.180Z,47.15
2019-04-29T19:32:18.861Z,48.05
2019-04-29T19:34:26.791Z,48.23
2019-04-29T19:36:35.287Z,47.98
2019-04-29T19:38:47.235Z,47.65
2019-04-29T19:40:55.038Z,52.10
2019-04-29T19:43:02.949Z,52.05
2019-04-29T19:45:13.155Z,50.20
2019-04-29T19:47:20.709Z,51.15
2019-04-29T19:49:28.516Z,48.30
2019-04-29T19:51:39.338Z,47.93
2019-04-29T19:53:49.432Z,47.08
2019-04-29T19:56:03.484Z,51.98
2019-04-29T19:58:07.145Z,49.90
2019-04-29T20:00:17.740Z,49.40
2019-04-29T20:02:26.415Z,47.70
2019-04-29T20:04:39.512Z,51.08
2019-04-29T20:06:48.390Z,52.23
2019-04-29T20:09:01.086Z,48.13
2019-04-29T20:11:14.714Z,50.48
2019-04-29T20:13:17.253Z,51.25
2019-04-29T20:15:47.107Z,55.60
2019-04-29T20:18:10.713Z,61.40
2019-04-29T20:20:20.644Z,52.70
2019-04-29T20:22:29.037Z,39.15
2019-04-29T20:24:37.255Z,32.33
2019-04-29T20:26:46.919Z,27.35
2019-04-29T20:28:55.674Z,27.10
2019-04-29T20:31:16.262Z,22.17
2019-04-29T20:33:16.080Z,28.52
2019-04-29T20:35:25.974Z,32.55
2019-04-29T20:37:36.010Z,33.28
2019-04-29T20:39:45.643Z,32.65
2019-04-29T20:41:55.701Z,31.27
2019-04-29T20:44:05.851Z,30.57
2019-04-29T20:46:13.582Z,36.33
2019-04-29T20:48:21.762Z,35.48
2019-04-29T20:50:30.373Z,32.85
2019-04-29T20:52:56.115Z,36.55
2019-04-29T20:55:02.639Z,35.13
2019-04-29T20:57:17.633Z,39.78
2019-04-29T20:59:21.050Z,39.45
2019-04-29T21:01:43.217Z,41.13
2019-04-29T21:03:53.491Z,36.75
2019-04-29T21:06:02.327Z,35.03
2019-04-29T21:08:14.513Z,36.58
2019-04-29T21:10:18.833Z,35.60
2019-04-29T21:12:34.844Z,37.08
2019-04-29T21:14:43.605Z,36.17
2019-04-29T21:16:55.191Z,37.75
2019-04-29T21:19:08.752Z,36.80
2019-04-29T21:21:17.115Z,26.02
2019-04-29T21:23:25.031Z,29.55
2019-04-29T21:25:33.003Z,26.07
2019-04-29T21:27:41.259Z,27.65
2019-04-29T21:29:49.769Z,19.48
2019-04-29T21:32:01.480Z,34.10
2019-04-29T21:34:07.603Z,33.15
2019-04-29T21:36:15.552Z,30.40
2019-04-29T21:38:41.353Z,32.67
2019-04-29T21:40:51.591Z,26.82
2019-04-29T21:43:01.154Z,31.75
2019-04-29T21:45:11.658Z,31.45
2019-04-29T21:47:20.022Z,25.77
2019-04-29T21:49:27.853Z,26.65
2019-04-29T21:51:35.745Z,29.48
2019-04-29T21:53:43.708Z,26.40
2019-04-29T21:55:51.548Z,29.00
2019-04-29T21:58:00.214Z,28.02
2019-04-29T22:00:10.979Z,23.22
2019-04-29T22:02:20.924Z,27.00
2019-04-29T22:04:32.710Z,26.70
2019-04-29T22:06:38.478Z,25.88
2019-04-29T22:08:46.394Z,25.90
2019-04-29T22:10:59.104Z,24.57
2019-04-29T22:13:07.041Z,26.42
2019-04-29T22:15:29.942Z,25.88
2019-04-29T22:17:32.764Z,28.98
2019-04-29T22:19:38.538Z,25.43
2019-04-29T22:21:46.592Z,24.80
2019-04-29T22:23:55.262Z,25.95
2019-04-29T22:26:05.041Z,25.82
2019-04-29T22:28:15.871Z,26.52
2019-04-29T22:30:23.374Z,22.60
2019-04-29T22:32:31.335Z,25.32
2019-04-29T22:34:39.315Z,26.15
2019-04-29T22:36:48.184Z,24.57
2019-04-29T22:38:56.939Z,24.23
2019-04-29T22:41:06.604Z,24.85
2019-04-29T22:43:25.441Z,25.57
2019-04-29T22:45:35.574Z,24.12
2019-04-29T22:47:43.702Z,25.43
2019-04-29T22:49:51.785Z,25.30
2019-04-29T22:51:59.660Z,28.62
2019-04-29T22:54:07.755Z,26.37
2019-04-29T22:56:16.056Z,26.93
2019-04-29T22:58:24.982Z,29.12
2019-04-29T23:00:36.144Z,27.42
2019-04-29T23:02:44.517Z,29.07
2019-04-29T23:04:53.807Z,27.17
2019-04-29T23:07:02.602Z,29.00
2019-04-29T23:09:12.085Z,30.48
2019-04-29T23:11:20.219Z,31.93
2019-04-29T23:13:31.103Z,32.70
2019-04-29T23:15:37.992Z,32.73
2019-04-29T23:17:47.360Z,37.42
2019-04-29T23:19:57.150Z,35.55
2019-04-29T23:22:22.142Z,34.70
2019-04-29T23:24:34.113Z,33.10
2019-04-29T23:26:42.574Z,35.15
2019-04-29T23:28:50.599Z,35.23
2019-04-29T23:30:58.732Z,35.40
2019-04-29T23:33:06.531Z,36.98
2019-04-29T23:35:14.949Z,37.42
2019-04-29T23:37:27.138Z,38.85
2019-04-29T23:39:34.824Z,39.00
2019-04-29T23:41:45.134Z,40.12
2019-04-29T23:43:53.365Z,39.78
2019-04-29T23:46:01.748Z,40.30
2019-04-29T23:48:09.647Z,37.13
2019-04-29T23:50:18.605Z,38.73
2019-04-29T23:52:27.629Z,38.55
2019-04-29T23:54:44.411Z,35.05
2019-04-29T23:57:00.469Z,35.65
2019-04-29T23:59:18.451Z,33.95
